Henderson, MN (56044)

9:22 PM CST on November 21, 2014 (GMT -0600)
MesoWest HENDER MN US UPR | Change Station
CLOSE
Current Station
Personal Weather Station
Location: Henderson, MN
Elevation: 724 ft
Nearby Weather Stations

Elev 724 ft 44.58 °N, 93.89 °W | Updated 4 hours ago

Partly Cloudy
Partly Cloudy
31.0 °F
Feels Like 31.0 °F
N
-
Wind Variable Wind from North

Today
High -- | Low -- °F
--% Chance of Precip.
Yesterday
High -- | Low -- °F
Precip. -- in
7:19 AM 4:42 PM
Waning Crescent, 0% visible
Pressure 29.87 in
Visibility 10.0 miles
Clouds Clear
Dew Point Not available.
Humidity Not available.
Rainfall -999.00 in
Snow Depth Not available.
UV 0 out of 12
Pollen .10 out of 12
Air Quality Not available.
Flu Activity Not available.
METAR KGYL 220314Z AUTO 18010G19KT 10SM CLR M01/M03 A2987 RMK AO2 T10131035

More Conditions Fewer Conditions

Pressure 29.87 in
Visibility 10.0 miles
Clouds Clear
Dew Point Not available.
Humidity Not available.
Rainfall -999.00 in
Snow Depth Not available.
UV 0 out of 12
Pollen .10 out of 12
Air Quality Not available.
Flu Activity Not available.
METAR KGYL 220314Z AUTO 18010G19KT 10SM CLR M01/M03 A2987 RMK AO2 T10131035

More Conditions Fewer Conditions

10-Day Weather Forecast

Almanac

Astronomy

Nov. 21, 2014 Rise Set
Actual Time
Civil Twilight
Nautical Twilight
Astronomical Twilight
Moon
Length of Visible Light
Length of Day
Tomorrow will be .
, % of the Moon is Illuminated

Today's Extremes

State Highs State Lows

Community

WunderPhotos

Upload Photos

1,772,773 photos uploaded!

WunderBlogs® & News

Nearby

Air Quality

  Air Quality AQ Index Pollutant
Not available.

Snow Depth

Station Depth Elevation

Earthquake Activity

City Distance Mag. Time & Date
Minimum magnitude displayed is 2.5.

Coastal Water Temperatures

Place Temperature

Nearby Weather Stations